sensor_id;sensor_type;location;lat;lon;timestamp;pressure;altitude;pressure_sealevel;temperature;humidity
54876;BME280;40764;48.472;8.166;2024-01-27T00:05:27;99965.63;;;4.82;100.00
54876;BME280;40764;48.472;8.166;2024-01-27T00:11:28;99975.44;;;5.21;100.00
54876;BME280;40764;48.472;8.166;2024-01-27T00:17:28;99964.41;;;4.78;100.00
54876;BME280;40764;48.472;8.166;2024-01-27T00:23:28;99978.22;;;5.08;100.00
54876;BME280;40764;48.472;8.166;2024-01-27T00:29:29;99967.09;;;5.22;100.00
54876;BME280;40764;48.472;8.166;2024-01-27T00:35:29;99960.34;;;5.32;100.00
54876;BME280;40764;48.472;8.166;2024-01-27T00:41:29;99980.00;;;5.27;100.00
54876;BME280;40764;48.472;8.166;2024-01-27T00:47:30;99968.34;;;4.82;100.00
54876;BME280;40764;48.472;8.166;2024-01-27T00:53:30;99986.91;;;5.16;100.00
54876;BME280;40764;48.472;8.166;2024-01-27T00:59:30;99981.22;;;4.86;100.00
54876;BME280;40764;48.472;8.166;2024-01-27T01:05:31;99982.53;;;4.77;100.00
54876;BME280;40764;48.472;8.166;2024-01-27T01:11:31;100001.72;;;4.76;100.00
54876;BME280;40764;48.472;8.166;2024-01-27T01:17:31;100004.66;;;4.68;100.00
54876;BME280;40764;48.472;8.166;2024-01-27T01:23:31;100014.72;;;4.47;100.00
54876;BME280;40764;48.472;8.166;2024-01-27T01:29:32;100017.03;;;4.37;100.00
54876;BME280;40764;48.472;8.166;2024-01-27T01:35:33;100017.78;;;4.71;100.00
54876;BME280;40764;48.472;8.166;2024-01-27T01:41:33;100007.91;;;4.89;100.00
54876;BME280;40764;48.472;8.166;2024-01-27T01:47:33;100030.16;;;4.27;100.00
54876;BME280;40764;48.472;8.166;2024-01-27T01:53:34;100032.66;;;4.02;100.00
54876;BME280;40764;48.472;8.166;2024-01-27T01:59:34;100028.69;;;4.31;100.00
54876;BME280;40764;48.472;8.166;2024-01-27T02:05:40;100038.88;;;4.29;100.00
54876;BME280;40764;48.472;8.166;2024-01-27T02:11:40;100037.44;;;4.20;100.00
54876;BME280;40764;48.472;8.166;2024-01-27T02:17:41;100039.56;;;4.11;100.00
54876;BME280;40764;48.472;8.166;2024-01-27T02:23:42;100049.28;;;3.72;100.00
54876;BME280;40764;48.472;8.166;2024-01-27T02:29:42;100044.28;;;3.50;100.00
54876;BME280;40764;48.472;8.166;2024-01-27T02:35:42;100049.00;;;3.28;100.00
54876;BME280;40764;48.472;8.166;2024-01-27T02:41:43;100057.44;;;3.11;100.00
54876;BME280;40764;48.472;8.166;2024-01-27T02:47:44;100066.63;;;3.17;100.00
54876;BME280;40764;48.472;8.166;2024-01-27T02:53:44;100060.66;;;3.28;100.00
54876;BME280;40764;48.472;8.166;2024-01-27T02:59:45;100053.34;;;3.22;100.00
54876;BME280;40764;48.472;8.166;2024-01-27T03:05:46;100074.06;;;3.02;100.00
54876;BME280;40764;48.472;8.166;2024-01-27T03:11:46;100066.91;;;2.88;100.00
54876;BME280;40764;48.472;8.166;2024-01-27T03:17:46;100073.94;;;3.23;100.00
54876;BME280;40764;48.472;8.166;2024-01-27T03:23:47;100076.59;;;2.69;100.00
54876;BME280;40764;48.472;8.166;2024-01-27T03:29:47;100074.09;;;2.67;100.00
54876;BME280;40764;48.472;8.166;2024-01-27T03:35:47;100081.81;;;3.18;100.00
54876;BME280;40764;48.472;8.166;2024-01-27T03:41:48;100085.81;;;3.29;100.00
54876;BME280;40764;48.472;8.166;2024-01-27T03:47:48;100086.22;;;3.26;100.00
54876;BME280;40764;48.472;8.166;2024-01-27T03:53:48;100083.63;;;3.04;100.00
54876;BME280;40764;48.472;8.166;2024-01-27T03:59:49;100090.16;;;2.47;100.00
54876;BME280;40764;48.472;8.166;2024-01-27T04:05:49;100097.06;;;2.29;100.00
54876;BME280;40764;48.472;8.166;2024-01-27T04:11:49;100116.88;;;2.36;100.00
54876;BME280;40764;48.472;8.166;2024-01-27T04:17:51;100110.22;;;2.38;100.00
54876;BME280;40764;48.472;8.166;2024-01-27T04:23:51;100123.28;;;2.63;100.00
54876;BME280;40764;48.472;8.166;2024-01-27T04:29:51;100130.56;;;2.13;100.00
54876;BME280;40764;48.472;8.166;2024-01-27T04:35:51;100124.84;;;2.01;100.00
54876;BME280;40764;48.472;8.166;2024-01-27T04:41:52;100126.06;;;1.99;100.00
54876;BME280;40764;48.472;8.166;2024-01-27T04:47:53;100121.19;;;1.66;100.00
54876;BME280;40764;48.472;8.166;2024-01-27T04:53:53;100122.34;;;1.57;100.00
54876;BME280;40764;48.472;8.166;2024-01-27T04:59:54;100129.19;;;1.60;100.00
54876;BME280;40764;48.472;8.166;2024-01-27T05:05:54;100117.91;;;1.49;100.00
54876;BME280;40764;48.472;8.166;2024-01-27T05:11:55;100117.91;;;1.35;100.00
54876;BME280;40764;48.472;8.166;2024-01-27T05:17:55;100107.41;;;1.76;100.00
54876;BME280;40764;48.472;8.166;2024-01-27T05:23:55;100117.91;;;1.92;100.00
54876;BME280;40764;48.472;8.166;2024-01-27T05:29:55;100103.13;;;1.45;100.00
54876;BME280;40764;48.472;8.166;2024-01-27T05:35:56;100107.25;;;1.63;100.00
54876;BME280;40764;48.472;8.166;2024-01-27T05:41:56;100108.03;;;1.42;100.00
54876;BME280;40764;48.472;8.166;2024-01-27T05:47:56;100109.69;;;1.21;100.00
54876;BME280;40764;48.472;8.166;2024-01-27T05:53:57;100113.69;;;1.26;100.00
54876;BME280;40764;48.472;8.166;2024-01-27T05:59:57;100117.25;;;1.47;100.00
54876;BME280;40764;48.472;8.166;2024-01-27T06:05:57;100117.41;;;1.24;100.00
54876;BME280;40764;48.472;8.166;2024-01-27T06:11:59;100122.13;;;1.22;100.00
54876;BME280;40764;48.472;8.166;2024-01-27T06:18:00;100138.56;;;1.28;100.00
54876;BME280;40764;48.472;8.166;2024-01-27T06:24:00;100128.97;;;1.40;100.00
54876;BME280;40764;48.472;8.166;2024-01-27T06:30:02;100135.56;;;1.52;100.00
54876;BME280;40764;48.472;8.166;2024-01-27T06:36:03;100143.72;;;1.44;100.00
54876;BME280;40764;48.472;8.166;2024-01-27T06:42:03;100153.59;;;1.37;100.00
54876;BME280;40764;48.472;8.166;2024-01-27T06:48:04;100134.84;;;1.29;100.00
54876;BME280;40764;48.472;8.166;2024-01-27T06:54:04;100134.09;;;1.35;100.00
54876;BME280;40764;48.472;8.166;2024-01-27T07:00:08;100130.22;;;1.22;100.00
54876;BME280;40764;48.472;8.166;2024-01-27T07:06:08;100122.97;;;1.23;100.00
54876;BME280;40764;48.472;8.166;2024-01-27T07:12:09;100137.16;;;1.32;100.00
54876;BME280;40764;48.472;8.166;2024-01-27T07:18:10;100134.22;;;1.27;100.00
54876;BME280;40764;48.472;8.166;2024-01-27T07:24:10;100131.69;;;1.25;100.00
54876;BME280;40764;48.472;8.166;2024-01-27T07:30:11;100132.63;;;1.32;100.00
54876;BME280;40764;48.472;8.166;2024-01-27T07:36:12;100132.88;;;1.37;100.00
54876;BME280;40764;48.472;8.166;2024-01-27T07:42:12;100119.13;;;1.32;100.00
54876;BME280;40764;48.472;8.166;2024-01-27T07:48:12;100109.53;;;1.44;100.00
54876;BME280;40764;48.472;8.166;2024-01-27T07:54:13;100114.19;;;1.50;100.00
54876;BME280;40764;48.472;8.166;2024-01-27T08:00:13;100115.78;;;1.45;100.00
54876;BME280;40764;48.472;8.166;2024-01-27T08:06:28;100117.47;;;1.31;100.00
54876;BME280;40764;48.472;8.166;2024-01-27T08:12:29;100118.63;;;1.07;100.00
54876;BME280;40764;48.472;8.166;2024-01-27T08:18:30;100128.81;;;1.12;100.00
54876;BME280;40764;48.472;8.166;2024-01-27T08:24:30;100111.78;;;0.90;100.00
54876;BME280;40764;48.472;8.166;2024-01-27T08:30:31;100115.16;;;1.28;100.00
54876;BME280;40764;48.472;8.166;2024-01-27T08:36:31;100123.06;;;1.87;100.00
54876;BME280;40764;48.472;8.166;2024-01-27T08:42:32;100128.69;;;1.71;100.00
54876;BME280;40764;48.472;8.166;2024-01-27T08:48:32;100127.03;;;1.91;100.00
54876;BME280;40764;48.472;8.166;2024-01-27T08:54:35;100122.28;;;1.36;100.00
54876;BME280;40764;48.472;8.166;2024-01-27T09:00:35;100125.94;;;1.64;100.00
54876;BME280;40764;48.472;8.166;2024-01-27T09:06:35;100129.22;;;1.81;100.00
54876;BME280;40764;48.472;8.166;2024-01-27T09:12:36;100128.75;;;2.20;100.00
54876;BME280;40764;48.472;8.166;2024-01-27T09:18:36;100121.63;;;2.34;100.00
54876;BME280;40764;48.472;8.166;2024-01-27T09:24:36;100114.09;;;2.57;100.00
54876;BME280;40764;48.472;8.166;2024-01-27T09:30:36;100102.78;;;2.75;100.00
54876;BME280;40764;48.472;8.166;2024-01-27T09:36:37;100117.13;;;2.75;100.00
54876;BME280;40764;48.472;8.166;2024-01-27T09:42:37;100130.59;;;3.03;100.00
54876;BME280;40764;48.472;8.166;2024-01-27T09:48:39;100112.84;;;3.29;100.00
54876;BME280;40764;48.472;8.166;2024-01-27T09:54:47;100098.81;;;3.12;100.00
54876;BME280;40764;48.472;8.166;2024-01-27T10:00:50;100094.16;;;3.40;100.00
54876;BME280;40764;48.472;8.166;2024-01-27T10:06:50;100083.81;;;3.51;100.00
54876;BME280;40764;48.472;8.166;2024-01-27T10:12:52;100079.28;;;4.04;100.00
54876;BME280;40764;48.472;8.166;2024-01-27T10:19:01;100075.56;;;4.38;100.00
54876;BME280;40764;48.472;8.166;2024-01-27T10:25:02;100078.66;;;4.48;98.63
54876;BME280;40764;48.472;8.166;2024-01-27T10:31:12;100089.06;;;4.58;99.44
54876;BME280;40764;48.472;8.166;2024-01-27T10:37:12;100075.31;;;4.66;100.00
54876;BME280;40764;48.472;8.166;2024-01-27T10:43:14;100060.22;;;4.90;100.00
54876;BME280;40764;48.472;8.166;2024-01-27T10:49:17;100058.28;;;5.10;100.00
54876;BME280;40764;48.472;8.166;2024-01-27T10:55:18;100049.19;;;5.36;100.00
54876;BME280;40764;48.472;8.166;2024-01-27T11:01:20;100052.69;;;5.50;98.34
54876;BME280;40764;48.472;8.166;2024-01-27T11:07:23;100050.31;;;5.60;98.75
54876;BME280;40764;48.472;8.166;2024-01-27T11:13:24;100041.03;;;5.74;98.13
54876;BME280;40764;48.472;8.166;2024-01-27T11:19:25;100017.53;;;5.93;97.70
54876;BME280;40764;48.472;8.166;2024-01-27T11:25:25;100019.75;;;6.03;98.34
54876;BME280;40764;48.472;8.166;2024-01-27T11:31:26;100012.44;;;6.28;97.18
54876;BME280;40764;48.472;8.166;2024-01-27T11:37:30;100008.81;;;6.34;97.13
54876;BME280;40764;48.472;8.166;2024-01-27T11:43:30;100007.56;;;6.55;93.18
54876;BME280;40764;48.472;8.166;2024-01-27T11:49:32;99990.22;;;6.74;93.67
54876;BME280;40764;48.472;8.166;2024-01-27T11:55:33;99999.03;;;6.88;93.46
54876;BME280;40764;48.472;8.166;2024-01-27T12:01:33;99990.38;;;7.09;92.35
54876;BME280;40764;48.472;8.166;2024-01-27T12:07:34;99991.34;;;7.15;92.86
54876;BME280;40764;48.472;8.166;2024-01-27T12:13:34;99984.47;;;7.31;91.25
54876;BME280;40764;48.472;8.166;2024-01-27T12:19:35;99969.88;;;7.67;88.04
54876;BME280;40764;48.472;8.166;2024-01-27T12:25:35;99968.47;;;7.76;87.41
54876;BME280;40764;48.472;8.166;2024-01-27T12:31:35;99969.00;;;7.85;86.41
54876;BME280;40764;48.472;8.166;2024-01-27T12:37:36;99958.22;;;7.90;85.09
54876;BME280;40764;48.472;8.166;2024-01-27T12:43:36;99948.97;;;8.02;83.56
54876;BME280;40764;48.472;8.166;2024-01-27T12:49:37;99943.66;;;8.19;82.56
54876;BME280;40764;48.472;8.166;2024-01-27T12:55:37;99931.81;;;8.02;82.78
54876;BME280;40764;48.472;8.166;2024-01-27T13:01:37;99921.38;;;8.22;81.53
54876;BME280;40764;48.472;8.166;2024-01-27T13:07:40;99913.91;;;8.29;81.17
54876;BME280;40764;48.472;8.166;2024-01-27T13:13:42;99905.03;;;8.34;80.41
54876;BME280;40764;48.472;8.166;2024-01-27T13:19:42;99903.00;;;8.29;79.03
54876;BME280;40764;48.472;8.166;2024-01-27T13:25:43;99909.78;;;8.27;80.76
54876;BME280;40764;48.472;8.166;2024-01-27T13:31:43;99894.88;;;8.41;80.40
54876;BME280;40764;48.472;8.166;2024-01-27T13:37:44;99895.69;;;8.42;82.51
54876;BME280;40764;48.472;8.166;2024-01-27T13:43:46;99889.16;;;8.31;83.65
54876;BME280;40764;48.472;8.166;2024-01-27T13:49:46;99887.63;;;8.35;83.48
54876;BME280;40764;48.472;8.166;2024-01-27T13:55:47;99880.16;;;8.30;84.34
54876;BME280;40764;48.472;8.166;2024-01-27T14:01:47;99875.66;;;8.24;84.31
54876;BME280;40764;48.472;8.166;2024-01-27T14:07:47;99878.41;;;8.13;84.11
54876;BME280;40764;48.472;8.166;2024-01-27T14:13:49;99864.78;;;8.01;84.64
54876;BME280;40764;48.472;8.166;2024-01-27T14:19:49;99861.81;;;8.02;85.27
54876;BME280;40764;48.472;8.166;2024-01-27T14:25:50;99864.09;;;7.82;85.86
54876;BME280;40764;48.472;8.166;2024-01-27T14:31:50;99870.72;;;7.86;86.32
54876;BME280;40764;48.472;8.166;2024-01-27T14:37:52;99877.59;;;7.65;86.79
54876;BME280;40764;48.472;8.166;2024-01-27T14:43:52;99889.41;;;7.71;86.50
54876;BME280;40764;48.472;8.166;2024-01-27T14:49:53;99883.09;;;7.35;88.66
54876;BME280;40764;48.472;8.166;2024-01-27T14:55:54;99887.06;;;7.21;89.63
54876;BME280;40764;48.472;8.166;2024-01-27T15:01:54;99884.59;;;6.60;91.47
54876;BME280;40764;48.472;8.166;2024-01-27T15:07:57;99884.09;;;6.51;91.97
54876;BME280;40764;48.472;8.166;2024-01-27T15:13:57;99878.00;;;6.37;93.02
54876;BME280;40764;48.472;8.166;2024-01-27T15:19:58;99875.59;;;5.86;95.61
54876;BME280;40764;48.472;8.166;2024-01-27T15:25:58;99873.06;;;5.66;95.49
54876;BME280;40764;48.472;8.166;2024-01-27T15:32:01;99883.81;;;5.29;97.74
54876;BME280;40764;48.472;8.166;2024-01-27T15:38:01;99889.50;;;5.46;98.39
54876;BME280;40764;48.472;8.166;2024-01-27T15:44:03;99887.50;;;5.10;98.61
54876;BME280;40764;48.472;8.166;2024-01-27T15:50:03;99888.66;;;4.96;99.91
54876;BME280;40764;48.472;8.166;2024-01-27T15:56:04;99905.78;;;4.83;100.00
54876;BME280;40764;48.472;8.166;2024-01-27T16:02:05;99912.47;;;4.81;99.52
54876;BME280;40764;48.472;8.166;2024-01-27T16:08:06;99914.44;;;4.67;100.00
54876;BME280;40764;48.472;8.166;2024-01-27T16:14:08;99915.31;;;4.54;100.00
54876;BME280;40764;48.472;8.166;2024-01-27T16:20:09;99923.72;;;4.33;100.00
54876;BME280;40764;48.472;8.166;2024-01-27T16:26:09;99932.53;;;4.02;100.00
54876;BME280;40764;48.472;8.166;2024-01-27T16:32:09;99925.66;;;4.13;100.00
54876;BME280;40764;48.472;8.166;2024-01-27T16:38:10;99932.13;;;4.12;100.00
54876;BME280;40764;48.472;8.166;2024-01-27T16:44:10;99925.66;;;3.99;100.00
54876;BME280;40764;48.472;8.166;2024-01-27T16:50:11;99926.34;;;3.82;100.00
54876;BME280;40764;48.472;8.166;2024-01-27T16:56:11;99938.63;;;3.78;100.00
54876;BME280;40764;48.472;8.166;2024-01-27T17:02:12;99925.28;;;3.83;100.00
54876;BME280;40764;48.472;8.166;2024-01-27T17:08:14;99921.75;;;3.62;100.00
54876;BME280;40764;48.472;8.166;2024-01-27T17:14:14;99926.16;;;3.50;100.00
54876;BME280;40764;48.472;8.166;2024-01-27T17:20:16;99919.91;;;3.50;100.00
54876;BME280;40764;48.472;8.166;2024-01-27T17:26:17;99919.66;;;3.38;100.00
54876;BME280;40764;48.472;8.166;2024-01-27T17:32:18;99923.63;;;3.22;100.00
54876;BME280;40764;48.472;8.166;2024-01-27T17:38:18;99925.91;;;3.19;100.00
54876;BME280;40764;48.472;8.166;2024-01-27T17:44:19;99928.38;;;3.07;100.00
54876;BME280;40764;48.472;8.166;2024-01-27T17:50:19;99914.22;;;3.11;100.00
54876;BME280;40764;48.472;8.166;2024-01-27T17:56:20;99933.34;;;3.03;100.00
54876;BME280;40764;48.472;8.166;2024-01-27T18:02:21;99939.34;;;2.92;100.00
54876;BME280;40764;48.472;8.166;2024-01-27T18:08:25;99932.66;;;2.88;100.00
54876;BME280;40764;48.472;8.166;2024-01-27T18:14:25;99939.91;;;2.74;100.00
54876;BME280;40764;48.472;8.166;2024-01-27T18:20:26;99931.41;;;2.77;100.00
54876;BME280;40764;48.472;8.166;2024-01-27T18:26:26;99929.25;;;2.60;100.00
54876;BME280;40764;48.472;8.166;2024-01-27T18:32:26;99934.44;;;2.55;100.00
54876;BME280;40764;48.472;8.166;2024-01-27T18:38:27;99930.66;;;2.49;100.00
54876;BME280;40764;48.472;8.166;2024-01-27T18:44:27;99936.69;;;2.44;100.00
54876;BME280;40764;48.472;8.166;2024-01-27T18:50:27;99939.34;;;2.38;100.00
54876;BME280;40764;48.472;8.166;2024-01-27T18:56:28;99929.81;;;2.42;100.00
54876;BME280;40764;48.472;8.166;2024-01-27T19:02:31;99931.50;;;2.49;100.00
54876;BME280;40764;48.472;8.166;2024-01-27T19:08:31;99922.97;;;2.39;100.00
54876;BME280;40764;48.472;8.166;2024-01-27T19:14:32;99929.25;;;2.12;100.00
54876;BME280;40764;48.472;8.166;2024-01-27T19:20:32;99926.94;;;2.09;100.00
54876;BME280;40764;48.472;8.166;2024-01-27T19:26:32;99916.56;;;2.06;100.00
54876;BME280;40764;48.472;8.166;2024-01-27T19:32:33;99916.16;;;2.09;100.00
54876;BME280;40764;48.472;8.166;2024-01-27T19:38:33;99915.94;;;2.04;100.00
54876;BME280;40764;48.472;8.166;2024-01-27T19:44:37;99913.03;;;2.05;100.00
54876;BME280;40764;48.472;8.166;2024-01-27T19:50:37;99908.59;;;1.98;100.00
54876;BME280;40764;48.472;8.166;2024-01-27T19:56:38;99900.28;;;1.93;100.00
54876;BME280;40764;48.472;8.166;2024-01-27T20:02:38;99898.03;;;1.68;100.00
54876;BME280;40764;48.472;8.166;2024-01-27T20:08:38;99893.97;;;1.79;100.00
54876;BME280;40764;48.472;8.166;2024-01-27T20:14:40;99899.56;;;1.77;100.00
54876;BME280;40764;48.472;8.166;2024-01-27T20:20:41;99888.59;;;1.79;100.00
54876;BME280;40764;48.472;8.166;2024-01-27T20:26:41;99884.44;;;1.76;100.00
54876;BME280;40764;48.472;8.166;2024-01-27T20:32:42;99885.59;;;1.67;100.00
54876;BME280;40764;48.472;8.166;2024-01-27T20:38:47;99882.81;;;1.54;100.00
54876;BME280;40764;48.472;8.166;2024-01-27T20:44:49;99884.91;;;1.59;100.00
54876;BME280;40764;48.472;8.166;2024-01-27T20:50:50;99890.47;;;1.78;100.00
54876;BME280;40764;48.472;8.166;2024-01-27T20:56:51;99893.63;;;1.89;100.00
54876;BME280;40764;48.472;8.166;2024-01-27T21:02:54;99895.59;;;1.73;100.00
54876;BME280;40764;48.472;8.166;2024-01-27T21:08:54;99897.09;;;1.48;100.00
54876;BME280;40764;48.472;8.166;2024-01-27T21:14:54;99895.50;;;1.60;100.00
54876;BME280;40764;48.472;8.166;2024-01-27T21:20:56;99888.25;;;1.61;100.00
54876;BME280;40764;48.472;8.166;2024-01-27T21:26:58;99886.59;;;1.60;100.00
54876;BME280;40764;48.472;8.166;2024-01-27T21:32:58;99881.78;;;1.55;100.00
54876;BME280;40764;48.472;8.166;2024-01-27T21:38:59;99878.97;;;1.42;100.00
54876;BME280;40764;48.472;8.166;2024-01-27T21:44:59;99874.22;;;1.44;100.00
54876;BME280;40764;48.472;8.166;2024-01-27T21:51:00;99868.47;;;1.47;100.00
54876;BME280;40764;48.472;8.166;2024-01-27T21:57:00;99861.69;;;1.58;100.00
54876;BME280;40764;48.472;8.166;2024-01-27T22:03:00;99852.03;;;1.42;100.00
54876;BME280;40764;48.472;8.166;2024-01-27T22:09:01;99856.59;;;1.41;100.00
54876;BME280;40764;48.472;8.166;2024-01-27T22:15:02;99844.97;;;1.41;100.00
54876;BME280;40764;48.472;8.166;2024-01-27T22:21:14;99834.50;;;1.52;100.00
54876;BME280;40764;48.472;8.166;2024-01-27T22:27:14;99839.69;;;1.54;100.00
54876;BME280;40764;48.472;8.166;2024-01-27T22:33:15;99839.66;;;1.47;100.00
54876;BME280;40764;48.472;8.166;2024-01-27T22:39:16;99834.72;;;1.58;100.00
54876;BME280;40764;48.472;8.166;2024-01-27T22:45:16;99826.06;;;1.62;100.00
54876;BME280;40764;48.472;8.166;2024-01-27T22:51:17;99826.06;;;1.62;100.00
54876;BME280;40764;48.472;8.166;2024-01-27T22:57:17;99822.13;;;1.65;100.00
54876;BME280;40764;48.472;8.166;2024-01-27T23:03:17;99819.81;;;1.62;100.00
54876;BME280;40764;48.472;8.166;2024-01-27T23:09:18;99818.16;;;1.61;100.00
54876;BME280;40764;48.472;8.166;2024-01-27T23:15:19;99811.22;;;1.79;100.00
54876;BME280;40764;48.472;8.166;2024-01-27T23:21:19;99807.00;;;2.11;100.00
54876;BME280;40764;48.472;8.166;2024-01-27T23:27:23;99805.47;;;1.89;100.00
54876;BME280;40764;48.472;8.166;2024-01-27T23:33:23;99799.19;;;1.75;100.00
54876;BME280;40764;48.472;8.166;2024-01-27T23:39:23;99803.69;;;1.68;100.00
54876;BME280;40764;48.472;8.166;2024-01-27T23:45:24;99802.94;;;1.46;100.00
54876;BME280;40764;48.472;8.166;2024-01-27T23:51:24;99792.75;;;1.42;100.00
54876;BME280;40764;48.472;8.166;2024-01-27T23:57:24;99792.50;;;1.37;100.00
